sensor_id;sensor_type;location;lat;lon;timestamp;P1;durP1;ratioP1;P2;durP2;ratioP2
23712;SDS011;12035;49.978;8.298;2023-02-28T00:01:31;2.08;;;1.05;;
23712;SDS011;12035;49.978;8.298;2023-02-28T00:06:28;2.65;;;1.13;;
23712;SDS011;12035;49.978;8.298;2023-02-28T00:11:28;3.88;;;1.00;;
23712;SDS011;12035;49.978;8.298;2023-02-28T00:16:27;3.15;;;1.15;;
23712;SDS011;12035;49.978;8.298;2023-02-28T00:21:25;2.58;;;1.10;;
23712;SDS011;12035;49.978;8.298;2023-02-28T00:26:22;2.70;;;1.30;;
23712;SDS011;12035;49.978;8.298;2023-02-28T00:31:20;2.65;;;1.30;;
23712;SDS011;12035;49.978;8.298;2023-02-28T00:36:19;2.78;;;1.30;;
23712;SDS011;12035;49.978;8.298;2023-02-28T00:41:16;6.28;;;1.80;;
23712;SDS011;12035;49.978;8.298;2023-02-28T00:46:15;3.75;;;1.50;;
23712;SDS011;12035;49.978;8.298;2023-02-28T00:51:13;3.95;;;1.70;;
23712;SDS011;12035;49.978;8.298;2023-02-28T00:56:13;3.70;;;1.77;;
23712;SDS011;12035;49.978;8.298;2023-02-28T01:01:10;4.32;;;1.67;;
23712;SDS011;12035;49.978;8.298;2023-02-28T01:06:09;3.72;;;1.80;;
23712;SDS011;12035;49.978;8.298;2023-02-28T01:11:09;6.68;;;2.50;;
23712;SDS011;12035;49.978;8.298;2023-02-28T01:16:12;4.10;;;2.28;;
23712;SDS011;12035;49.978;8.298;2023-02-28T01:21:12;4.97;;;2.38;;
23712;SDS011;12035;49.978;8.298;2023-02-28T01:26:14;5.93;;;2.20;;
23712;SDS011;12035;49.978;8.298;2023-02-28T01:31:14;4.05;;;2.30;;
23712;SDS011;12035;49.978;8.298;2023-02-28T01:36:14;6.30;;;2.75;;
23712;SDS011;12035;49.978;8.298;2023-02-28T01:41:22;3.47;;;2.35;;
23712;SDS011;12035;49.978;8.298;2023-02-28T01:46:21;4.45;;;2.60;;
23712;SDS011;12035;49.978;8.298;2023-02-28T01:51:20;4.80;;;2.45;;
23712;SDS011;12035;49.978;8.298;2023-02-28T01:56:25;5.00;;;2.85;;
23712;SDS011;12035;49.978;8.298;2023-02-28T02:01:27;5.05;;;2.95;;
23712;SDS011;12035;49.978;8.298;2023-02-28T02:06:29;5.40;;;3.03;;
23712;SDS011;12035;49.978;8.298;2023-02-28T02:11:32;4.15;;;2.90;;
23712;SDS011;12035;49.978;8.298;2023-02-28T02:16:34;4.45;;;2.97;;
23712;SDS011;12035;49.978;8.298;2023-02-28T02:22:00;3.25;;;2.53;;
23712;SDS011;12035;49.978;8.298;2023-02-28T02:27:22;4.68;;;3.00;;
23712;SDS011;12035;49.978;8.298;2023-02-28T02:32:45;4.50;;;2.70;;
23712;SDS011;12035;49.978;8.298;2023-02-28T02:38:06;3.53;;;2.50;;
23712;SDS011;12035;49.978;8.298;2023-02-28T02:43:08;4.57;;;2.60;;
23712;SDS011;12035;49.978;8.298;2023-02-28T02:48:14;5.38;;;2.92;;
23712;SDS011;12035;49.978;8.298;2023-02-28T02:53:18;5.15;;;3.40;;
23712;SDS011;12035;49.978;8.298;2023-02-28T02:58:28;6.45;;;3.63;;
23712;SDS011;12035;49.978;8.298;2023-02-28T03:03:36;6.20;;;3.33;;
23712;SDS011;12035;49.978;8.298;2023-02-28T03:08:37;5.97;;;3.10;;
23712;SDS011;12035;49.978;8.298;2023-02-28T03:19:03;4.22;;;2.75;;
23712;SDS011;12035;49.978;8.298;2023-02-28T03:24:23;5.35;;;2.58;;
23712;SDS011;12035;49.978;8.298;2023-02-28T03:29:31;3.67;;;2.42;;
23712;SDS011;12035;49.978;8.298;2023-02-28T03:34:32;3.97;;;2.60;;
23712;SDS011;12035;49.978;8.298;2023-02-28T03:39:36;5.63;;;2.40;;
23712;SDS011;12035;49.978;8.298;2023-02-28T03:44:40;4.13;;;2.72;;
23712;SDS011;12035;49.978;8.298;2023-02-28T03:49:42;4.75;;;2.65;;
23712;SDS011;12035;49.978;8.298;2023-02-28T03:54:47;5.60;;;2.53;;
23712;SDS011;12035;49.978;8.298;2023-02-28T03:59:49;3.83;;;2.47;;
23712;SDS011;12035;49.978;8.298;2023-02-28T04:04:53;4.50;;;2.20;;
23712;SDS011;12035;49.978;8.298;2023-02-28T04:09:52;5.07;;;2.65;;
23712;SDS011;12035;49.978;8.298;2023-02-28T04:14:50;3.75;;;2.22;;
23712;SDS011;12035;49.978;8.298;2023-02-28T04:19:48;5.32;;;2.70;;
23712;SDS011;12035;49.978;8.298;2023-02-28T04:24:46;5.15;;;2.70;;
23712;SDS011;12035;49.978;8.298;2023-02-28T04:29:45;7.63;;;3.15;;
23712;SDS011;12035;49.978;8.298;2023-02-28T04:34:42;6.15;;;3.15;;
23712;SDS011;12035;49.978;8.298;2023-02-28T04:39:41;3.92;;;2.50;;
23712;SDS011;12035;49.978;8.298;2023-02-28T04:44:38;4.85;;;3.22;;
23712;SDS011;12035;49.978;8.298;2023-02-28T04:49:40;5.35;;;2.92;;
23712;SDS011;12035;49.978;8.298;2023-02-28T04:54:37;4.53;;;2.75;;
23712;SDS011;12035;49.978;8.298;2023-02-28T04:59:35;4.78;;;2.60;;
23712;SDS011;12035;49.978;8.298;2023-02-28T05:04:35;4.57;;;2.70;;
23712;SDS011;12035;49.978;8.298;2023-02-28T05:09:34;4.55;;;2.60;;
23712;SDS011;12035;49.978;8.298;2023-02-28T05:14:32;4.30;;;2.05;;
23712;SDS011;12035;49.978;8.298;2023-02-28T05:19:31;4.57;;;2.72;;
23712;SDS011;12035;49.978;8.298;2023-02-28T05:24:30;4.95;;;2.80;;
23712;SDS011;12035;49.978;8.298;2023-02-28T05:29:27;6.07;;;2.70;;
23712;SDS011;12035;49.978;8.298;2023-02-28T05:34:25;4.95;;;2.58;;
23712;SDS011;12035;49.978;8.298;2023-02-28T05:39:24;3.70;;;2.33;;
23712;SDS011;12035;49.978;8.298;2023-02-28T05:44:22;5.55;;;2.70;;
23712;SDS011;12035;49.978;8.298;2023-02-28T05:49:19;4.05;;;2.08;;
23712;SDS011;12035;49.978;8.298;2023-02-28T05:54:17;3.85;;;2.33;;
23712;SDS011;12035;49.978;8.298;2023-02-28T05:59:15;5.07;;;2.60;;
23712;SDS011;12035;49.978;8.298;2023-02-28T06:04:14;5.07;;;2.50;;
23712;SDS011;12035;49.978;8.298;2023-02-28T06:09:15;5.38;;;2.53;;
23712;SDS011;12035;49.978;8.298;2023-02-28T06:14:22;4.63;;;2.65;;
23712;SDS011;12035;49.978;8.298;2023-02-28T06:19:22;5.35;;;2.80;;
23712;SDS011;12035;49.978;8.298;2023-02-28T06:24:21;4.30;;;2.83;;
23712;SDS011;12035;49.978;8.298;2023-02-28T06:29:20;4.40;;;2.50;;
23712;SDS011;12035;49.978;8.298;2023-02-28T06:34:18;4.88;;;2.25;;
23712;SDS011;12035;49.978;8.298;2023-02-28T06:39:17;4.78;;;2.25;;
23712;SDS011;12035;49.978;8.298;2023-02-28T06:44:16;3.55;;;2.13;;
23712;SDS011;12035;49.978;8.298;2023-02-28T06:49:14;3.75;;;2.10;;
23712;SDS011;12035;49.978;8.298;2023-02-28T06:54:11;4.05;;;2.03;;
23712;SDS011;12035;49.978;8.298;2023-02-28T06:59:11;3.72;;;2.10;;
23712;SDS011;12035;49.978;8.298;2023-02-28T07:04:09;4.90;;;2.42;;
23712;SDS011;12035;49.978;8.298;2023-02-28T07:09:08;4.18;;;2.80;;
23712;SDS011;12035;49.978;8.298;2023-02-28T07:14:05;4.50;;;2.22;;
23712;SDS011;12035;49.978;8.298;2023-02-28T07:19:05;4.82;;;2.38;;
23712;SDS011;12035;49.978;8.298;2023-02-28T07:24:03;9.10;;;2.40;;
23712;SDS011;12035;49.978;8.298;2023-02-28T07:29:02;3.80;;;2.10;;
23712;SDS011;12035;49.978;8.298;2023-02-28T07:33:59;4.90;;;2.30;;
23712;SDS011;12035;49.978;8.298;2023-02-28T07:38:59;3.53;;;2.30;;
23712;SDS011;12035;49.978;8.298;2023-02-28T07:43:57;5.03;;;2.60;;
23712;SDS011;12035;49.978;8.298;2023-02-28T07:48:55;3.50;;;2.38;;
23712;SDS011;12035;49.978;8.298;2023-02-28T07:53:54;4.45;;;2.50;;
23712;SDS011;12035;49.978;8.298;2023-02-28T07:58:53;4.63;;;2.50;;
23712;SDS011;12035;49.978;8.298;2023-02-28T08:03:51;5.25;;;2.50;;
23712;SDS011;12035;49.978;8.298;2023-02-28T08:08:50;4.25;;;2.58;;
23712;SDS011;12035;49.978;8.298;2023-02-28T08:13:48;4.68;;;2.40;;
23712;SDS011;12035;49.978;8.298;2023-02-28T08:18:47;4.25;;;2.70;;
23712;SDS011;12035;49.978;8.298;2023-02-28T08:23:46;4.82;;;2.60;;
23712;SDS011;12035;49.978;8.298;2023-02-28T08:28:44;4.50;;;2.38;;
23712;SDS011;12035;49.978;8.298;2023-02-28T08:33:42;6.07;;;2.58;;
23712;SDS011;12035;49.978;8.298;2023-02-28T08:38:42;3.50;;;2.22;;
23712;SDS011;12035;49.978;8.298;2023-02-28T08:43:39;6.07;;;2.50;;
23712;SDS011;12035;49.978;8.298;2023-02-28T08:48:37;3.50;;;2.22;;
23712;SDS011;12035;49.978;8.298;2023-02-28T08:53:45;4.25;;;2.55;;
23712;SDS011;12035;49.978;8.298;2023-02-28T08:58:44;3.88;;;2.30;;
23712;SDS011;12035;49.978;8.298;2023-02-28T09:03:44;4.80;;;2.70;;
23712;SDS011;12035;49.978;8.298;2023-02-28T09:08:44;4.20;;;2.47;;
23712;SDS011;12035;49.978;8.298;2023-02-28T09:13:43;5.07;;;2.50;;
23712;SDS011;12035;49.978;8.298;2023-02-28T09:18:40;5.00;;;2.70;;
23712;SDS011;12035;49.978;8.298;2023-02-28T09:23:38;7.00;;;2.47;;
23712;SDS011;12035;49.978;8.298;2023-02-28T09:28:38;6.50;;;2.70;;
23712;SDS011;12035;49.978;8.298;2023-02-28T09:33:36;4.80;;;2.30;;
23712;SDS011;12035;49.978;8.298;2023-02-28T09:38:33;4.18;;;2.20;;
23712;SDS011;12035;49.978;8.298;2023-02-28T09:43:31;7.55;;;3.10;;
23712;SDS011;12035;49.978;8.298;2023-02-28T09:48:34;6.50;;;2.50;;
23712;SDS011;12035;49.978;8.298;2023-02-28T09:53:37;4.90;;;2.38;;
23712;SDS011;12035;49.978;8.298;2023-02-28T09:58:37;4.43;;;2.47;;
23712;SDS011;12035;49.978;8.298;2023-02-28T10:03:45;4.57;;;2.30;;
23712;SDS011;12035;49.978;8.298;2023-02-28T10:08:50;6.20;;;2.50;;
23712;SDS011;12035;49.978;8.298;2023-02-28T10:14:00;8.05;;;2.50;;
23712;SDS011;12035;49.978;8.298;2023-02-28T10:19:04;3.83;;;2.40;;
23712;SDS011;12035;49.978;8.298;2023-02-28T10:24:13;3.95;;;2.28;;
23712;SDS011;12035;49.978;8.298;2023-02-28T10:29:19;6.65;;;2.55;;
23712;SDS011;12035;49.978;8.298;2023-02-28T10:34:22;5.57;;;2.53;;
23712;SDS011;12035;49.978;8.298;2023-02-28T10:39:40;7.07;;;2.67;;
23712;SDS011;12035;49.978;8.298;2023-02-28T10:44:39;5.75;;;2.50;;
23712;SDS011;12035;49.978;8.298;2023-02-28T10:49:38;4.47;;;2.55;;
23712;SDS011;12035;49.978;8.298;2023-02-28T10:54:44;4.60;;;2.90;;
23712;SDS011;12035;49.978;8.298;2023-02-28T10:59:52;7.03;;;2.75;;
23712;SDS011;12035;49.978;8.298;2023-02-28T11:10:30;4.80;;;2.70;;
23712;SDS011;12035;49.978;8.298;2023-02-28T11:15:30;5.25;;;2.80;;
23712;SDS011;12035;49.978;8.298;2023-02-28T11:20:32;6.38;;;2.70;;
23712;SDS011;12035;49.978;8.298;2023-02-28T11:25:30;4.47;;;2.70;;
23712;SDS011;12035;49.978;8.298;2023-02-28T11:30:33;6.13;;;2.63;;
23712;SDS011;12035;49.978;8.298;2023-02-28T11:35:34;3.92;;;2.42;;
23712;SDS011;12035;49.978;8.298;2023-02-28T11:40:37;4.82;;;2.60;;
23712;SDS011;12035;49.978;8.298;2023-02-28T11:45:50;5.53;;;2.95;;
23712;SDS011;12035;49.978;8.298;2023-02-28T11:51:06;3.75;;;2.40;;
23712;SDS011;12035;49.978;8.298;2023-02-28T11:56:14;4.93;;;2.40;;
23712;SDS011;12035;49.978;8.298;2023-02-28T12:01:33;4.47;;;2.53;;
23712;SDS011;12035;49.978;8.298;2023-02-28T12:06:52;6.55;;;2.85;;
23712;SDS011;12035;49.978;8.298;2023-02-28T12:11:56;4.85;;;2.80;;
23712;SDS011;12035;49.978;8.298;2023-02-28T12:17:04;5.55;;;2.80;;
23712;SDS011;12035;49.978;8.298;2023-02-28T12:22:24;8.77;;;3.45;;
23712;SDS011;12035;49.978;8.298;2023-02-28T12:27:27;14.52;;;3.15;;
23712;SDS011;12035;49.978;8.298;2023-02-28T12:32:30;6.22;;;3.30;;
23712;SDS011;12035;49.978;8.298;2023-02-28T12:37:33;5.35;;;2.92;;
23712;SDS011;12035;49.978;8.298;2023-02-28T12:42:36;5.97;;;3.33;;
23712;SDS011;12035;49.978;8.298;2023-02-28T12:47:42;6.22;;;3.50;;
23712;SDS011;12035;49.978;8.298;2023-02-28T12:52:45;7.47;;;3.90;;
23712;SDS011;12035;49.978;8.298;2023-02-28T12:57:52;5.85;;;3.35;;
23712;SDS011;12035;49.978;8.298;2023-02-28T13:03:10;7.68;;;3.28;;
23712;SDS011;12035;49.978;8.298;2023-02-28T13:14:02;8.38;;;4.05;;
23712;SDS011;12035;49.978;8.298;2023-02-28T13:19:09;4.68;;;3.05;;
23712;SDS011;12035;49.978;8.298;2023-02-28T13:24:10;6.53;;;3.37;;
23712;SDS011;12035;49.978;8.298;2023-02-28T13:29:21;4.97;;;3.22;;
23712;SDS011;12035;49.978;8.298;2023-02-28T13:34:28;5.95;;;3.40;;
23712;SDS011;12035;49.978;8.298;2023-02-28T13:50:23;7.80;;;4.00;;
23712;SDS011;12035;49.978;8.298;2023-02-28T13:55:30;8.35;;;4.30;;
23712;SDS011;12035;49.978;8.298;2023-02-28T14:00:37;7.50;;;4.13;;
23712;SDS011;12035;49.978;8.298;2023-02-28T14:06:08;6.18;;;4.07;;
23712;SDS011;12035;49.978;8.298;2023-02-28T14:11:30;12.02;;;4.35;;
23712;SDS011;12035;49.978;8.298;2023-02-28T14:16:39;6.63;;;4.20;;
23712;SDS011;12035;49.978;8.298;2023-02-28T14:21:43;5.65;;;3.53;;
23712;SDS011;12035;49.978;8.298;2023-02-28T14:32:21;8.88;;;3.83;;
23712;SDS011;12035;49.978;8.298;2023-02-28T14:37:27;6.65;;;4.18;;
23712;SDS011;12035;49.978;8.298;2023-02-28T14:42:31;7.25;;;4.20;;
23712;SDS011;12035;49.978;8.298;2023-02-28T14:47:31;8.65;;;4.40;;
23712;SDS011;12035;49.978;8.298;2023-02-28T14:52:32;7.47;;;3.78;;
23712;SDS011;12035;49.978;8.298;2023-02-28T14:57:31;6.53;;;3.88;;
23712;SDS011;12035;49.978;8.298;2023-02-28T15:02:31;5.25;;;3.80;;
23712;SDS011;12035;49.978;8.298;2023-02-28T15:07:31;7.07;;;4.22;;
23712;SDS011;12035;49.978;8.298;2023-02-28T15:12:28;10.07;;;4.32;;
23712;SDS011;12035;49.978;8.298;2023-02-28T15:17:27;6.05;;;4.00;;
23712;SDS011;12035;49.978;8.298;2023-02-28T15:22:26;6.53;;;4.28;;
23712;SDS011;12035;49.978;8.298;2023-02-28T15:27:38;6.60;;;4.45;;
23712;SDS011;12035;49.978;8.298;2023-02-28T15:32:43;7.45;;;4.38;;
23712;SDS011;12035;49.978;8.298;2023-02-28T15:37:45;7.22;;;4.13;;
23712;SDS011;12035;49.978;8.298;2023-02-28T15:48:00;7.10;;;4.40;;
23712;SDS011;12035;49.978;8.298;2023-02-28T15:52:57;8.38;;;4.40;;
23712;SDS011;12035;49.978;8.298;2023-02-28T15:57:55;7.65;;;4.10;;
23712;SDS011;12035;49.978;8.298;2023-02-28T16:02:58;7.57;;;4.47;;
23712;SDS011;12035;49.978;8.298;2023-02-28T16:07:56;8.35;;;4.53;;
23712;SDS011;12035;49.978;8.298;2023-02-28T16:12:55;6.68;;;4.18;;
23712;SDS011;12035;49.978;8.298;2023-02-28T16:17:55;8.85;;;4.30;;
23712;SDS011;12035;49.978;8.298;2023-02-28T16:22:53;7.25;;;4.20;;
23712;SDS011;12035;49.978;8.298;2023-02-28T16:27:56;7.03;;;4.18;;
23712;SDS011;12035;49.978;8.298;2023-02-28T16:32:56;9.25;;;4.55;;
23712;SDS011;12035;49.978;8.298;2023-02-28T16:37:56;8.13;;;4.50;;
23712;SDS011;12035;49.978;8.298;2023-02-28T16:42:54;6.68;;;4.03;;
23712;SDS011;12035;49.978;8.298;2023-02-28T16:47:56;6.95;;;4.10;;
23712;SDS011;12035;49.978;8.298;2023-02-28T16:52:54;6.45;;;3.80;;
23712;SDS011;12035;49.978;8.298;2023-02-28T16:57:54;5.53;;;3.38;;
23712;SDS011;12035;49.978;8.298;2023-02-28T17:02:55;6.22;;;3.95;;
23712;SDS011;12035;49.978;8.298;2023-02-28T17:07:57;7.10;;;3.90;;
23712;SDS011;12035;49.978;8.298;2023-02-28T17:12:54;7.10;;;4.20;;
23712;SDS011;12035;49.978;8.298;2023-02-28T17:17:51;7.57;;;4.38;;
23712;SDS011;12035;49.978;8.298;2023-02-28T17:22:50;6.82;;;4.40;;
23712;SDS011;12035;49.978;8.298;2023-02-28T17:27:48;7.55;;;4.43;;
23712;SDS011;12035;49.978;8.298;2023-02-28T17:32:46;7.35;;;4.25;;
23712;SDS011;12035;49.978;8.298;2023-02-28T17:37:43;7.30;;;4.32;;
23712;SDS011;12035;49.978;8.298;2023-02-28T17:43:17;11.73;;;4.75;;
23712;SDS011;12035;49.978;8.298;2023-02-28T17:48:34;9.73;;;4.40;;
23712;SDS011;12035;49.978;8.298;2023-02-28T17:53:41;7.75;;;4.78;;
23712;SDS011;12035;49.978;8.298;2023-02-28T17:58:39;7.22;;;3.95;;
23712;SDS011;12035;49.978;8.298;2023-02-28T18:03:36;7.72;;;3.72;;
23712;SDS011;12035;49.978;8.298;2023-02-28T18:08:34;7.95;;;4.32;;
23712;SDS011;12035;49.978;8.298;2023-02-28T18:13:36;9.68;;;4.60;;
23712;SDS011;12035;49.978;8.298;2023-02-28T18:18:34;6.53;;;4.03;;
23712;SDS011;12035;49.978;8.298;2023-02-28T18:23:32;6.35;;;4.00;;
23712;SDS011;12035;49.978;8.298;2023-02-28T18:28:43;7.68;;;4.13;;
23712;SDS011;12035;49.978;8.298;2023-02-28T18:33:42;7.68;;;4.53;;
23712;SDS011;12035;49.978;8.298;2023-02-28T18:38:39;18.80;;;5.43;;
23712;SDS011;12035;49.978;8.298;2023-02-28T18:43:37;6.13;;;3.58;;
23712;SDS011;12035;49.978;8.298;2023-02-28T18:48:38;5.80;;;3.25;;
23712;SDS011;12035;49.978;8.298;2023-02-28T18:53:37;7.32;;;3.88;;
23712;SDS011;12035;49.978;8.298;2023-02-28T18:58:52;8.48;;;4.00;;
23712;SDS011;12035;49.978;8.298;2023-02-28T19:04:11;6.55;;;3.55;;
23712;SDS011;12035;49.978;8.298;2023-02-28T19:09:09;7.10;;;3.55;;
23712;SDS011;12035;49.978;8.298;2023-02-28T19:14:07;5.28;;;3.40;;
23712;SDS011;12035;49.978;8.298;2023-02-28T19:19:04;6.57;;;3.65;;
23712;SDS011;12035;49.978;8.298;2023-02-28T19:24:04;7.15;;;3.65;;
23712;SDS011;12035;49.978;8.298;2023-02-28T19:29:02;8.13;;;3.80;;
23712;SDS011;12035;49.978;8.298;2023-02-28T19:34:01;6.50;;;4.00;;
23712;SDS011;12035;49.978;8.298;2023-02-28T19:38:59;7.22;;;4.18;;
23712;SDS011;12035;49.978;8.298;2023-02-28T19:44:09;6.07;;;3.50;;
23712;SDS011;12035;49.978;8.298;2023-02-28T19:49:07;8.35;;;4.25;;
23712;SDS011;12035;49.978;8.298;2023-02-28T19:54:09;7.65;;;3.88;;
23712;SDS011;12035;49.978;8.298;2023-02-28T19:59:09;8.43;;;4.38;;
23712;SDS011;12035;49.978;8.298;2023-02-28T20:04:08;6.47;;;3.80;;
23712;SDS011;12035;49.978;8.298;2023-02-28T20:09:06;8.10;;;4.15;;
23712;SDS011;12035;49.978;8.298;2023-02-28T20:14:08;6.93;;;3.92;;
23712;SDS011;12035;49.978;8.298;2023-02-28T20:19:07;8.80;;;4.55;;
23712;SDS011;12035;49.978;8.298;2023-02-28T20:24:06;7.70;;;3.95;;
23712;SDS011;12035;49.978;8.298;2023-02-28T20:29:06;9.07;;;4.63;;
23712;SDS011;12035;49.978;8.298;2023-02-28T20:34:05;10.18;;;4.85;;
23712;SDS011;12035;49.978;8.298;2023-02-28T20:39:04;6.30;;;4.32;;
23712;SDS011;12035;49.978;8.298;2023-02-28T20:44:03;9.18;;;4.65;;
23712;SDS011;12035;49.978;8.298;2023-02-28T20:49:03;8.48;;;4.90;;
23712;SDS011;12035;49.978;8.298;2023-02-28T20:54:00;8.70;;;5.10;;
23712;SDS011;12035;49.978;8.298;2023-02-28T20:58:58;8.27;;;4.78;;
23712;SDS011;12035;49.978;8.298;2023-02-28T21:03:57;8.50;;;4.82;;
23712;SDS011;12035;49.978;8.298;2023-02-28T21:08:57;8.80;;;5.10;;
23712;SDS011;12035;49.978;8.298;2023-02-28T21:13:57;10.02;;;4.70;;
23712;SDS011;12035;49.978;8.298;2023-02-28T21:18:59;8.85;;;4.82;;
23712;SDS011;12035;49.978;8.298;2023-02-28T21:23:59;11.40;;;4.53;;
23712;SDS011;12035;49.978;8.298;2023-02-28T21:28:57;9.45;;;5.55;;
23712;SDS011;12035;49.978;8.298;2023-02-28T21:33:58;11.40;;;5.70;;
23712;SDS011;12035;49.978;8.298;2023-02-28T21:38:59;8.00;;;5.80;;
23712;SDS011;12035;49.978;8.298;2023-02-28T21:44:02;10.73;;;5.35;;
23712;SDS011;12035;49.978;8.298;2023-02-28T21:49:04;10.80;;;5.90;;
23712;SDS011;12035;49.978;8.298;2023-02-28T21:54:02;12.73;;;6.18;;
23712;SDS011;12035;49.978;8.298;2023-02-28T21:59:03;9.10;;;5.57;;
23712;SDS011;12035;49.978;8.298;2023-02-28T22:04:06;13.48;;;6.32;;
23712;SDS011;12035;49.978;8.298;2023-02-28T22:09:15;11.52;;;6.00;;
23712;SDS011;12035;49.978;8.298;2023-02-28T22:14:13;10.80;;;5.60;;
23712;SDS011;12035;49.978;8.298;2023-02-28T22:19:13;10.27;;;6.22;;
23712;SDS011;12035;49.978;8.298;2023-02-28T22:24:11;10.90;;;6.57;;
23712;SDS011;12035;49.978;8.298;2023-02-28T22:29:08;11.95;;;5.75;;
23712;SDS011;12035;49.978;8.298;2023-02-28T22:34:06;12.80;;;6.72;;
23712;SDS011;12035;49.978;8.298;2023-02-28T22:39:08;11.80;;;6.80;;
23712;SDS011;12035;49.978;8.298;2023-02-28T22:44:07;12.88;;;7.35;;
23712;SDS011;12035;49.978;8.298;2023-02-28T22:49:04;10.27;;;6.18;;
23712;SDS011;12035;49.978;8.298;2023-02-28T22:54:02;9.57;;;5.95;;
23712;SDS011;12035;49.978;8.298;2023-02-28T22:59:01;12.45;;;7.10;;
23712;SDS011;12035;49.978;8.298;2023-02-28T23:04:01;10.93;;;6.18;;
23712;SDS011;12035;49.978;8.298;2023-02-28T23:09:02;9.32;;;6.22;;
23712;SDS011;12035;49.978;8.298;2023-02-28T23:14:04;13.05;;;7.80;;
23712;SDS011;12035;49.978;8.298;2023-02-28T23:19:02;10.57;;;6.88;;
23712;SDS011;12035;49.978;8.298;2023-02-28T23:24:04;8.98;;;5.80;;
23712;SDS011;12035;49.978;8.298;2023-02-28T23:29:06;11.70;;;6.95;;
23712;SDS011;12035;49.978;8.298;2023-02-28T23:34:04;13.90;;;7.57;;
23712;SDS011;12035;49.978;8.298;2023-02-28T23:39:01;11.70;;;7.15;;
23712;SDS011;12035;49.978;8.298;2023-02-28T23:44:00;11.05;;;7.20;;
23712;SDS011;12035;49.978;8.298;2023-02-28T23:48:59;11.90;;;7.30;;
23712;SDS011;12035;49.978;8.298;2023-02-28T23:53:57;14.68;;;7.45;;
23712;SDS011;12035;49.978;8.298;2023-02-28T23:58:58;12.30;;;6.70;;
